Time;durP1;ratioP1;P1;durP2;ratioP2;P2;SDS_P1;SDS_P2;PMS_P1;PMS_P2;Temp;Humidity;BMP_temperature;BMP_pressure;BME280_temperature;BME280_humidity;BME280_pressure;Samples;Min_cycle;Max_cycle;Signal;HPM_P1;HPM_P2
2021/08/12 00:00:56;;;;;;;0.00;0.00;;;15.60;99.90;;;;;;5052018;28;20138;-82
2021/08/12 00:03:44;;;;;;;0.00;0.00;;;15.70;99.90;;;;;;5050641;28;20056;-84
2021/08/12 00:06:31;;;;;;;0.00;0.00;;;15.60;99.90;;;;;;5042524;28;21325;-82
2021/08/12 00:09:19;;;;;;;0.00;0.00;;;15.60;99.90;;;;;;5037538;28;20124;-85
2021/08/12 00:12:07;;;;;;;0.00;0.00;;;15.60;99.90;;;;;;5044991;28;20041;-85
2021/08/12 00:14:54;;;;;;;0.00;0.00;;;15.60;99.90;;;;;;5056204;28;20160;-84
2021/08/12 00:17:43;;;;;;;0.00;0.00;;;15.50;99.90;;;;;;5029822;28;20517;-83
2021/08/12 00:20:30;;;;;;;0.00;0.00;;;15.50;99.90;;;;;;5050795;28;20037;-83
2021/08/12 00:23:17;;;;;;;0.00;0.00;;;15.70;99.90;;;;;;5041546;28;20049;-84
2021/08/12 00:26:04;;;;;;;0.00;0.00;;;15.50;99.90;;;;;;5038883;28;20158;-83
2021/08/12 00:28:51;;;;;;;0.00;0.00;;;15.40;99.90;;;;;;5059500;28;20045;-84
2021/08/12 00:31:38;;;;;;;0.00;0.00;;;15.40;99.90;;;;;;5055777;28;20572;-82
2021/08/12 00:34:27;;;;;;;0.00;0.00;;;15.40;99.90;;;;;;5034842;28;20073;-85
2021/08/12 00:37:14;;;;;;;0.00;0.00;;;15.40;99.90;;;;;;5053348;28;20049;-84
2021/08/12 00:40:01;;;;;;;0.00;0.00;;;15.30;99.90;;;;;;5051578;28;20037;-84
2021/08/12 00:42:49;;;;;;;0.00;0.00;;;15.30;99.90;;;;;;5039758;28;20053;-85
2021/08/12 00:45:37;;;;;;;0.00;0.00;;;15.30;99.90;;;;;;5057697;28;20058;-85
2021/08/12 00:48:24;;;;;;;0.00;0.00;;;15.20;99.90;;;;;;5049064;28;20040;-85
2021/08/12 00:51:13;;;;;;;0.00;0.00;;;15.20;99.90;;;;;;5038114;28;20100;-84
2021/08/12 00:54:00;;;;;;;0.00;0.00;;;15.20;99.90;;;;;;5053283;28;20045;-84
2021/08/12 00:56:49;;;;;;;0.10;0.10;;;15.10;99.90;;;;;;5045971;28;20557;-81
2021/08/12 00:59:37;;;;;;;0.00;0.00;;;15.10;99.90;;;;;;5043516;28;20037;-82
2021/08/12 01:02:24;;;;;;;0.00;0.00;;;15.10;99.90;;;;;;5050038;28;20504;-83
2021/08/12 01:05:12;;;;;;;0.00;0.00;;;15.00;99.90;;;;;;5054828;28;20053;-84
2021/08/12 01:08:10;;;;;;;0.00;0.00;;;14.80;99.90;;;;;;5044280;28;20048;-84
2021/08/12 01:11:06;;;;;;;0.00;0.00;;;14.90;99.90;;;;;;5050936;28;20151;-84
2021/08/12 01:14:04;;;;;;;0.00;0.00;;;14.80;99.90;;;;;;5052758;28;20516;-85
2021/08/12 01:16:57;;;;;;;0.00;0.00;;;14.80;99.90;;;;;;5038937;28;20097;-83
2021/08/12 01:20:12;;;;;;;0.00;0.00;;;14.70;99.90;;;;;;5051838;28;20037;-84
2021/08/12 01:23:02;;;;;;;0.00;0.00;;;14.60;99.90;;;;;;5060046;28;20234;-84
2021/08/12 01:25:54;;;;;;;0.00;0.00;;;14.60;99.90;;;;;;5033466;28;20041;-84
2021/08/12 01:28:43;;;;;;;0.00;0.00;;;14.60;99.90;;;;;;5049447;28;20117;-82
2021/08/12 01:31:43;;;;;;;0.00;0.00;;;14.60;99.90;;;;;;5036865;28;20053;-84
2021/08/12 01:34:40;;;;;;;;;;;14.50;99.90;;;;;;5055895;28;20041;-84
2021/08/12 01:37:32;;;;;;;0.00;0.00;;;14.60;99.90;;;;;;5041803;28;19927;-83
2021/08/12 01:40:21;;;;;;;0.00;0.00;;;14.60;99.90;;;;;;5056189;28;20047;-83
2021/08/12 01:43:14;;;;;;;0.00;0.00;;;14.50;99.90;;;;;;5040356;28;20049;-81
2021/08/12 01:46:02;;;;;;;0.00;0.00;;;14.50;99.90;;;;;;5038838;28;20045;-80
2021/08/12 01:48:50;;;;;;;0.00;0.00;;;14.50;99.90;;;;;;5038002;28;20408;-85
2021/08/12 01:51:39;;;;;;;0.00;0.00;;;14.50;99.90;;;;;;5039860;28;20049;-82
2021/08/12 01:54:28;;;;;;;0.00;0.00;;;14.50;99.90;;;;;;5052776;28;20048;-85
2021/08/12 01:57:16;;;;;;;0.00;0.00;;;14.50;99.90;;;;;;5058032;28;20128;-82
2021/08/12 02:00:05;;;;;;;0.00;0.00;;;14.50;99.90;;;;;;5053879;28;20106;-80
2021/08/12 02:02:53;;;;;;;0.00;0.00;;;14.50;99.90;;;;;;5036542;28;20076;-84
2021/08/12 02:05:42;;;;;;;0.00;0.00;;;14.50;99.90;;;;;;5055614;28;20111;-85
2021/08/12 02:08:31;;;;;;;0.00;0.00;;;14.50;99.90;;;;;;5038602;28;20078;-85
2021/08/12 02:11:18;;;;;;;0.00;0.00;;;14.50;99.90;;;;;;5049196;28;20132;-82
2021/08/12 02:14:05;;;;;;;0.00;0.00;;;14.50;99.90;;;;;;5053909;28;20124;-85
2021/08/12 02:16:52;;;;;;;0.00;0.00;;;14.50;99.90;;;;;;5057656;28;20127;-81
2021/08/12 02:19:39;;;;;;;0.00;0.00;;;14.50;99.90;;;;;;5038057;28;20134;-84
2021/08/12 02:22:31;;;;;;;0.00;0.00;;;14.30;99.90;;;;;;5048112;28;20053;-84
2021/08/12 02:25:28;;;;;;;0.00;0.00;;;14.40;99.90;;;;;;5039310;28;20045;-85
2021/08/12 02:28:16;;;;;;;0.00;0.00;;;14.30;99.90;;;;;;5050053;28;20109;-84
2021/08/12 02:31:05;;;;;;;0.00;0.00;;;14.30;99.90;;;;;;5054931;28;20128;-84
2021/08/12 02:33:53;;;;;;;0.00;0.00;;;14.30;99.90;;;;;;5056192;28;20040;-85
2021/08/12 02:36:42;;;;;;;0.00;0.00;;;14.30;99.90;;;;;;5050310;28;20076;-85
2021/08/12 02:39:30;;;;;;;0.00;0.00;;;14.20;99.90;;;;;;5046051;28;20083;-84
2021/08/12 02:42:19;;;;;;;0.00;0.00;;;14.20;99.90;;;;;;5042926;28;20132;-85
2021/08/12 02:45:08;;;;;;;0.00;0.00;;;14.10;99.90;;;;;;5052025;28;20103;-84
2021/08/12 02:47:56;;;;;;;0.00;0.00;;;14.10;99.90;;;;;;5042620;28;20127;-85
2021/08/12 02:50:46;;;;;;;0.00;0.00;;;14.00;99.90;;;;;;5052915;28;20118;-85
2021/08/12 02:53:34;;;;;;;0.00;0.00;;;14.00;99.90;;;;;;5056364;28;20496;-84
2021/08/12 02:56:23;;;;;;;0.00;0.00;;;14.10;99.90;;;;;;5046069;28;20064;-84
2021/08/12 02:59:13;;;;;;;0.00;0.00;;;14.10;99.90;;;;;;5042821;28;20052;-85
2021/08/12 03:02:03;;;;;;;0.00;0.00;;;14.10;99.90;;;;;;5043844;28;20049;-82
2021/08/12 03:04:50;;;;;;;0.00;0.00;;;14.10;99.90;;;;;;5060954;28;20108;-84
2021/08/12 03:07:37;;;;;;;0.00;0.00;;;14.20;99.90;;;;;;5034700;28;20051;-84
2021/08/12 03:10:25;;;;;;;0.00;0.00;;;14.10;99.90;;;;;;5062619;28;20037;-84
2021/08/12 03:13:13;;;;;;;0.00;0.00;;;14.10;99.90;;;;;;5038302;28;20552;-85
2021/08/12 03:16:04;;;;;;;0.00;0.00;;;14.10;99.90;;;;;;5055495;28;20114;-84
2021/08/12 03:18:53;;;;;;;0.00;0.00;;;14.10;99.90;;;;;;5055648;28;20419;-82
2021/08/12 03:21:59;;;;;;;0.00;0.00;;;14.10;99.90;;;;;;5043506;28;20041;-83
2021/08/12 03:24:47;;;;;;;0.00;0.00;;;14.10;99.90;;;;;;5033899;28;20049;-84
2021/08/12 03:27:34;;;;;;;0.00;0.00;;;14.10;99.90;;;;;;5033423;28;20041;-84
2021/08/12 03:30:21;;;;;;;0.00;0.00;;;14.10;99.90;;;;;;5056997;28;20044;-84
2021/08/12 03:33:10;;;;;;;0.00;0.00;;;14.10;99.90;;;;;;5039240;28;20071;-85
2021/08/12 03:35:57;;;;;;;0.00;0.00;;;14.10;99.90;;;;;;5043305;28;20148;-83
2021/08/12 03:38:45;;;;;;;0.00;0.00;;;14.10;99.90;;;;;;5055711;28;20128;-84
2021/08/12 03:41:32;;;;;;;0.00;0.00;;;14.20;99.90;;;;;;5042376;28;20055;-85
2021/08/12 03:44:19;;;;;;;0.00;0.00;;;14.20;99.90;;;;;;5054991;28;20049;-85
2021/08/12 03:47:22;;;;;;;0.00;0.00;;;14.20;99.90;;;;;;5045121;28;20041;-85
2021/08/12 03:50:11;;;;;;;0.00;0.00;;;14.30;99.90;;;;;;5041309;28;20052;-82
2021/08/12 03:52:58;;;;;;;0.00;0.00;;;14.20;99.90;;;;;;5044921;28;20108;-84
2021/08/12 03:55:45;;;;;;;0.00;0.00;;;14.30;99.90;;;;;;5054174;28;20049;-84
2021/08/12 03:58:33;;;;;;;0.00;0.00;;;14.30;99.90;;;;;;5040347;28;20049;-85
2021/08/12 04:01:20;;;;;;;0.00;0.00;;;14.80;99.90;;;;;;5039180;28;20109;-84
2021/08/12 04:04:07;;;;;;;0.00;0.00;;;14.30;99.90;;;;;;5037561;28;20131;-84
2021/08/12 04:06:56;;;;;;;0.00;0.00;;;14.30;99.90;;;;;;5061556;28;20053;-82
2021/08/12 04:09:43;;;;;;;0.00;0.00;;;14.30;99.90;;;;;;5051774;28;20404;-85
2021/08/12 04:12:31;;;;;;;0.00;0.00;;;14.30;99.90;;;;;;5040089;28;20120;-85
2021/08/12 04:15:18;;;;;;;0.00;0.00;;;14.20;99.90;;;;;;5041836;28;20047;-84
2021/08/12 04:18:05;;;;;;;0.00;0.00;;;14.20;99.90;;;;;;5041182;28;20045;-83
2021/08/12 04:20:52;;;;;;;0.00;0.00;;;14.20;99.90;;;;;;5056311;28;20045;-84
2021/08/12 04:23:41;;;;;;;0.00;0.00;;;14.20;99.90;;;;;;5039979;28;20043;-82
2021/08/12 04:26:28;;;;;;;0.00;0.00;;;14.20;99.90;;;;;;5054984;28;20071;-85
2021/08/12 04:29:15;;;;;;;0.00;0.00;;;14.30;99.90;;;;;;5043893;28;20124;-84
2021/08/12 04:32:03;;;;;;;0.00;0.00;;;14.20;99.90;;;;;;5042144;28;20059;-83
2021/08/12 04:34:50;;;;;;;0.00;0.00;;;14.30;99.90;;;;;;5054947;28;20045;-84
2021/08/12 04:37:42;;;;;;;0.00;0.00;;;14.30;99.90;;;;;;5041391;28;20488;-84
2021/08/12 04:40:31;;;;;;;0.00;0.00;;;14.30;99.90;;;;;;5038388;28;20045;-82
2021/08/12 04:43:18;;;;;;;0.00;0.00;;;14.40;99.90;;;;;;5055029;28;20056;-80
2021/08/12 04:46:05;;;;;;;0.00;0.00;;;14.40;99.90;;;;;;5037515;28;20048;-85
2021/08/12 04:48:53;;;;;;;0.00;0.00;;;14.40;99.90;;;;;;5054111;28;20512;-83
2021/08/12 04:51:42;;;;;;;0.00;0.00;;;14.50;99.90;;;;;;5050408;28;20041;-85
2021/08/12 04:54:29;;;;;;;0.00;0.00;;;14.40;99.90;;;;;;5040888;28;20504;-83
2021/08/12 04:57:17;;;;;;;0.00;0.00;;;14.50;99.90;;;;;;5045872;28;20057;-84
2021/08/12 05:00:06;;;;;;;0.00;0.00;;;14.50;99.90;;;;;;5054405;28;20051;-84
2021/08/12 05:02:53;;;;;;;0.00;0.00;;;14.60;99.90;;;;;;5041418;28;20492;-85
2021/08/12 05:05:41;;;;;;;0.00;0.00;;;14.60;99.90;;;;;;5036047;28;20048;-87
2021/08/12 05:08:29;;;;;;;0.00;0.00;;;14.60;99.90;;;;;;5044340;28;20425;-85
2021/08/12 05:11:16;;;;;;;0.00;0.00;;;15.60;99.90;;;;;;5038885;28;20113;-82
2021/08/12 05:14:04;;;;;;;0.00;0.00;;;14.70;99.90;;;;;;5054441;28;20048;-85
2021/08/12 05:16:52;;;;;;;0.00;0.00;;;14.80;99.90;;;;;;5043793;28;20045;-84
2021/08/12 05:19:40;;;;;;;0.00;0.00;;;14.80;99.90;;;;;;5050984;28;20064;-84
2021/08/12 05:22:27;;;;;;;0.00;0.00;;;14.90;99.90;;;;;;5038883;28;20140;-84
2021/08/12 05:25:14;;;;;;;0.00;0.00;;;14.90;99.90;;;;;;5034946;28;20048;-84
2021/08/12 05:28:01;;;;;;;0.00;0.00;;;15.00;99.90;;;;;;5037405;28;20062;-81
2021/08/12 05:30:50;;;;;;;0.00;0.00;;;15.20;99.90;;;;;;5030457;28;20416;-82
2021/08/12 05:33:37;;;;;;;0.00;0.00;;;15.30;99.90;;;;;;5047051;28;20131;-82
2021/08/12 05:36:24;;;;;;;0.00;0.00;;;15.50;99.90;;;;;;5044890;28;20053;-84
2021/08/12 05:39:11;;;;;;;0.00;0.00;;;15.60;99.90;;;;;;5059191;28;20793;-82
2021/08/12 05:41:58;;;;;;;0.00;0.00;;;15.70;99.90;;;;;;5035586;28;20560;-84
2021/08/12 05:44:46;;;;;;;0.00;0.00;;;15.80;99.90;;;;;;5045956;28;20044;-85
2021/08/12 05:47:37;;;;;;;0.00;0.00;;;15.90;99.90;;;;;;5053358;28;20055;-84
2021/08/12 05:50:24;;;;;;;0.00;0.00;;;16.00;99.90;;;;;;5037018;28;20047;-84
2021/08/12 05:53:12;;;;;;;0.00;0.00;;;16.00;99.90;;;;;;5051072;28;20055;-84
2021/08/12 05:55:59;;;;;;;0.00;0.00;;;16.00;99.90;;;;;;5039911;28;20040;-82
2021/08/12 05:58:46;;;;;;;0.00;0.00;;;16.00;99.90;;;;;;5056571;28;20044;-84
2021/08/12 06:01:33;;;;;;;0.00;0.00;;;16.00;99.90;;;;;;5048225;28;20153;-84
2021/08/12 06:04:22;;;;;;;0.00;0.00;;;16.10;99.90;;;;;;5033555;28;20049;-85
2021/08/12 06:07:09;;;;;;;0.00;0.00;;;16.20;99.90;;;;;;5039377;28;20424;-83
2021/08/12 06:09:56;;;;;;;0.00;0.00;;;17.40;99.90;;;;;;5030355;28;20053;-85
2021/08/12 06:12:43;;;;;;;0.00;0.00;;;16.40;99.90;;;;;;5029106;28;20087;-81
2021/08/12 06:15:32;;;;;;;0.00;0.00;;;16.40;99.90;;;;;;5027733;28;20115;-82
2021/08/12 06:18:20;;;;;;;0.00;0.00;;;16.60;99.90;;;;;;5033118;28;20055;-86
2021/08/12 06:21:09;;;;;;;0.00;0.00;;;16.70;99.90;;;;;;5033629;28;20116;-85
2021/08/12 06:23:56;;;;;;;0.00;0.00;;;16.90;99.90;;;;;;5031918;28;20324;-85
2021/08/12 06:26:44;;;;;;;0.00;0.00;;;17.00;99.90;;;;;;5026271;28;20055;-86
2021/08/12 06:29:31;;;;;;;0.00;0.00;;;17.20;99.90;;;;;;5035912;28;20168;-85
2021/08/12 06:32:18;;;;;;;0.00;0.00;;;17.40;99.90;;;;;;5031614;28;20326;-85
2021/08/12 06:35:06;;;;;;;0.00;0.00;;;17.40;99.90;;;;;;5032462;28;20041;-84
2021/08/12 06:37:55;;;;;;;0.00;0.00;;;17.40;99.90;;;;;;5032447;28;20401;-85
2021/08/12 06:40:42;;;;;;;0.00;0.00;;;17.50;99.90;;;;;;5048335;28;20119;-86
2021/08/12 06:43:30;;;;;;;0.00;0.00;;;17.60;99.90;;;;;;5046157;28;20127;-85
2021/08/12 06:46:17;;;;;;;0.00;0.00;;;17.60;99.90;;;;;;5046339;28;20094;-84
2021/08/12 06:49:04;;;;;;;0.00;0.00;;;17.80;99.90;;;;;;5044142;28;20375;-84
2021/08/12 06:51:51;;;;;;;0.00;0.00;;;18.10;99.90;;;;;;5046421;28;20041;-83
2021/08/12 06:54:40;;;;;;;0.00;0.00;;;18.30;99.90;;;;;;5029117;28;20045;-83
2021/08/12 06:57:27;;;;;;;0.00;0.00;;;18.50;99.90;;;;;;5040794;28;20084;-85
2021/08/12 07:00:16;;;;;;;0.00;0.00;;;18.70;99.90;;;;;;5047312;28;20599;-84
2021/08/12 07:03:03;;;;;;;0.00;0.00;;;19.00;99.90;;;;;;5034983;28;20246;-82
2021/08/12 07:05:51;;;;;;;0.00;0.00;;;18.90;99.90;;;;;;5045319;28;20048;-81
2021/08/12 07:08:39;;;;;;;0.00;0.00;;;18.90;99.90;;;;;;5060219;28;20129;-85
2021/08/12 07:11:28;;;;;;;0.00;0.00;;;18.70;99.90;;;;;;5044478;28;20045;-84
2021/08/12 07:14:15;;;;;;;0.00;0.00;;;18.70;99.90;;;;;;5031706;28;20091;-85
2021/08/12 07:17:03;;;;;;;0.00;0.00;;;18.60;99.90;;;;;;5035537;28;20137;-84
2021/08/12 07:19:50;;;;;;;0.00;0.00;;;18.90;99.90;;;;;;5028744;28;20045;-84
2021/08/12 07:22:37;;;;;;;0.00;0.00;;;19.00;99.90;;;;;;5051087;28;20051;-81
2021/08/12 07:25:25;;;;;;;0.00;0.00;;;20.70;99.90;;;;;;5037015;28;20101;-84
2021/08/12 07:28:13;;;;;;;0.00;0.00;;;19.30;99.90;;;;;;5033302;28;20053;-83
2021/08/12 07:31:00;;;;;;;0.00;0.00;;;20.80;99.90;;;;;;5050437;28;20496;-84
2021/08/12 07:33:48;;;;;;;0.00;0.00;;;19.40;99.90;;;;;;5041238;28;20091;-84
2021/08/12 07:36:35;;;;;;;0.00;0.00;;;19.20;99.90;;;;;;5038384;28;20051;-84
2021/08/12 07:39:22;;;;;;;0.00;0.00;;;19.40;99.90;;;;;;5032068;28;20191;-84
2021/08/12 07:42:10;;;;;;;0.00;0.00;;;19.50;99.90;;;;;;5036093;28;20041;-83
2021/08/12 07:45:01;;;;;;;0.00;0.00;;;19.70;99.90;;;;;;5023363;28;20041;-82
2021/08/12 07:47:48;;;;;;;0.00;0.00;;;19.70;99.90;;;;;;5033423;28;20124;-85
2021/08/12 07:50:35;;;;;;;0.00;0.00;;;19.90;99.90;;;;;;5047599;28;20124;-82
2021/08/12 07:53:22;;;;;;;0.00;0.00;;;20.00;99.90;;;;;;5038826;28;20052;-80
2021/08/12 07:56:11;;;;;;;0.00;0.00;;;20.10;99.90;;;;;;5046027;28;20088;-83
2021/08/12 07:58:58;;;;;;;0.00;0.00;;;20.30;99.90;;;;;;5047476;28;20348;-84
2021/08/12 08:01:46;;;;;;;0.00;0.00;;;20.30;99.90;;;;;;5023069;28;20509;-85
2021/08/12 08:04:34;;;;;;;0.00;0.00;;;20.50;99.90;;;;;;5046624;28;20048;-84
2021/08/12 08:07:21;;;;;;;0.00;0.00;;;20.60;99.90;;;;;;5047818;28;20048;-84
2021/08/12 08:10:09;;;;;;;0.00;0.00;;;20.70;99.90;;;;;;5051039;28;20890;-83
2021/08/12 08:12:56;;;;;;;0.00;0.00;;;20.60;99.90;;;;;;5045795;28;20081;-81
2021/08/12 08:15:43;;;;;;;0.00;0.00;;;20.60;99.90;;;;;;5033421;28;20171;-82
2021/08/12 08:18:32;;;;;;;0.00;0.00;;;20.60;99.90;;;;;;5045558;28;20044;-81
2021/08/12 08:21:19;;;;;;;0.00;0.00;;;20.80;99.90;;;;;;5031669;28;20045;-84
2021/08/12 08:24:07;;;;;;;0.00;0.00;;;20.90;99.90;;;;;;5032536;28;20045;-84
2021/08/12 08:26:54;;;;;;;0.00;0.00;;;21.00;99.90;;;;;;5032376;28;20052;-82
2021/08/12 08:29:41;;;;;;;0.00;0.00;;;21.00;99.90;;;;;;5031461;28;20124;-84
2021/08/12 08:32:29;;;;;;;0.00;0.00;;;21.10;99.90;;;;;;5032681;28;20171;-83
2021/08/12 08:35:18;;;;;;;0.00;0.00;;;21.10;99.90;;;;;;5044899;28;20492;-85
2021/08/12 08:38:05;;;;;;;0.00;0.00;;;21.20;99.90;;;;;;5030051;28;20406;-85
2021/08/12 08:40:52;;;;;;;0.00;0.00;;;21.30;99.90;;;;;;5027808;28;20045;-84
2021/08/12 08:43:45;;;;;;;0.00;0.00;;;21.40;99.90;;;;;;5043234;28;20041;-83
2021/08/12 08:46:32;;;;;;;0.00;0.00;;;21.50;99.90;;;;;;5037535;28;20063;-81
2021/08/12 08:49:22;;;;;;;0.00;0.00;;;21.50;99.90;;;;;;5044178;28;20047;-83
2021/08/12 08:52:11;;;;;;;0.00;0.00;;;21.50;99.90;;;;;;5025214;28;20041;-84
2021/08/12 08:54:58;;;;;;;0.00;0.00;;;21.70;99.90;;;;;;5044238;28;20496;-83
2021/08/12 08:57:46;;;;;;;0.00;0.00;;;21.70;99.90;;;;;;5040984;28;20048;-84
2021/08/12 09:00:35;;;;;;;0.00;0.00;;;21.80;99.90;;;;;;5036398;28;20489;-84
2021/08/12 09:03:23;;;;;;;0.00;0.00;;;21.90;99.90;;;;;;5030227;28;20076;-80
2021/08/12 09:06:10;;;;;;;0.00;0.00;;;21.90;99.90;;;;;;5032185;28;20052;-84
2021/08/12 09:08:59;;;;;;;0.00;0.00;;;22.10;99.90;;;;;;5039489;28;20524;-82
2021/08/12 09:11:46;;;;;;;0.00;0.00;;;22.00;99.90;;;;;;5037330;28;20041;-82
2021/08/12 09:14:35;;;;;;;0.00;0.00;;;22.10;99.90;;;;;;5033355;28;20044;-84
2021/08/12 09:17:25;;;;;;;0.00;0.00;;;22.10;99.90;;;;;;5045287;28;20098;-83
2021/08/12 09:20:16;;;;;;;0.00;0.00;;;22.10;99.90;;;;;;5036023;28;20045;-83
2021/08/12 09:23:07;;;;;;;0.00;0.00;;;22.20;99.90;;;;;;5030665;28;20170;-81
2021/08/12 09:25:57;;;;;;;0.00;0.00;;;22.30;99.90;;;;;;5038802;28;20085;-84
2021/08/12 09:28:44;;;;;;;0.00;0.00;;;22.40;99.90;;;;;;5029339;28;20123;-84
2021/08/12 09:31:31;;;;;;;0.00;0.00;;;22.40;99.90;;;;;;5025604;28;20082;-83
2021/08/12 09:34:19;;;;;;;0.00;0.00;;;22.50;99.90;;;;;;5036405;28;20059;-84
2021/08/12 09:37:08;;;;;;;0.00;0.00;;;22.60;99.90;;;;;;5040417;28;20119;-85
2021/08/12 09:40:02;;;;;;;0.00;0.00;;;22.70;99.90;;;;;;5044299;28;20048;-82
2021/08/12 09:43:00;;;;;;;0.00;0.00;;;22.80;99.90;;;;;;5031478;28;20055;-85
2021/08/12 09:45:47;;;;;;;0.00;0.00;;;22.80;99.90;;;;;;5031123;28;20102;-82
2021/08/12 09:48:35;;;;;;;0.00;0.00;;;22.90;99.90;;;;;;5028218;28;20567;-84
2021/08/12 09:51:28;;;;;;;0.00;0.00;;;22.80;99.90;;;;;;5028295;28;20085;-84
2021/08/12 09:56:51;;;;;;;0.00;0.00;;;23.00;99.90;;;;;;5066630;28;20092;-85
2021/08/12 09:59:47;;;;;;;0.00;0.00;;;23.00;99.90;;;;;;5068302;28;20123;-87
2021/08/12 10:02:34;;;;;;;0.00;0.00;;;23.20;99.90;;;;;;5064930;28;20076;-84
2021/08/12 10:05:22;;;;;;;0.00;0.00;;;23.10;99.90;;;;;;5048238;28;20049;-86
2021/08/12 10:08:09;;;;;;;0.00;0.00;;;23.20;99.90;;;;;;5049108;28;20059;-86
2021/08/12 10:11:14;;;;;;;0.00;0.00;;;23.30;99.90;;;;;;5050106;28;20452;-85
2021/08/12 10:14:02;;;;;;;0.00;0.00;;;23.40;99.90;;;;;;5048126;28;20570;-86
2021/08/12 10:16:51;;;;;;;0.00;0.00;;;23.60;99.90;;;;;;5045300;28;20151;-86
2021/08/12 10:19:39;;;;;;;0.00;0.00;;;23.60;99.90;;;;;;5050032;28;20049;-85
2021/08/12 10:22:28;;;;;;;0.00;0.00;;;23.70;99.90;;;;;;5041898;28;20120;-86
2021/08/12 10:25:16;;;;;;;0.00;0.00;;;23.80;99.90;;;;;;5060843;28;20060;-86
2021/08/12 10:28:05;;;;;;;0.00;0.00;;;23.90;99.90;;;;;;5046165;28;20049;-85
2021/08/12 10:30:53;;;;;;;0.00;0.00;;;24.00;99.90;;;;;;5048202;28;20053;-87
2021/08/12 10:33:43;;;;;;;0.00;0.00;;;24.10;99.90;;;;;;5063232;28;20045;-85
2021/08/12 10:36:30;;;;;;;0.00;0.00;;;24.00;99.90;;;;;;5053245;28;20079;-84
2021/08/12 10:39:19;;;;;;;0.00;0.00;;;24.10;99.90;;;;;;5045266;28;20059;-86
2021/08/12 10:42:07;;;;;;;0.00;0.00;;;24.20;99.90;;;;;;5050186;28;20045;-88
2021/08/12 10:44:54;;;;;;;0.00;0.00;;;24.50;99.90;;;;;;5047079;28;20048;-87
2021/08/12 10:47:43;;;;;;;0.00;0.00;;;24.90;99.90;;;;;;5030539;28;20643;-86
2021/08/12 10:50:35;;;;;;;0.00;0.00;;;24.80;99.90;;;;;;5028785;28;20078;-84
2021/08/12 10:53:22;;;;;;;0.00;0.00;;;24.90;99.90;;;;;;5033608;28;20041;-86
2021/08/12 10:56:14;;;;;;;0.00;0.00;;;24.80;99.90;;;;;;5041596;28;20124;-85
2021/08/12 10:59:05;;;;;;;0.00;0.00;;;24.60;99.60;;;;;;5050639;28;20528;-84
2021/08/12 11:01:53;;;;;;;0.00;0.00;;;24.70;99.30;;;;;;5049903;28;20533;-86
2021/08/12 11:04:51;;;;;;;0.00;0.00;;;24.70;99.90;;;;;;5049735;28;20056;-86
2021/08/12 11:07:50;;;;;;;0.00;0.00;;;24.80;99.90;;;;;;5047226;28;20187;-84
2021/08/12 11:10:44;;;;;;;0.00;0.00;;;25.00;99.30;;;;;;5046055;28;20037;-88
2021/08/12 11:13:33;;;;;;;0.00;0.00;;;25.40;99.90;;;;;;5058257;28;20043;-85
2021/08/12 11:16:21;;;;;;;0.00;0.00;;;25.50;98.20;;;;;;5058172;28;20053;-87
2021/08/12 11:19:29;;;;;;;0.00;0.00;;;25.70;98.60;;;;;;5055872;28;20053;-84
2021/08/12 11:22:33;;;;;;;0.00;0.00;;;26.00;98.70;;;;;;5062521;28;20511;-86
2021/08/12 11:25:53;;;;;;;0.00;0.00;;;26.10;97.90;;;;;;5066240;28;20045;-86
2021/08/12 11:28:53;;;;;;;0.00;0.00;;;26.10;97.80;;;;;;5049262;28;20140;-88
2021/08/12 11:31:55;;;;;;;0.00;0.00;;;26.20;97.50;;;;;;5052266;28;20041;-85
2021/08/12 11:34:56;;;;;;;0.00;0.00;;;26.50;96.90;;;;;;5032131;28;20419;-85
2021/08/12 11:37:43;;;;;;;0.00;0.00;;;26.60;96.20;;;;;;5043605;28;20059;-86
2021/08/12 11:40:30;;;;;;;0.00;0.00;;;26.80;96.90;;;;;;5048944;28;20064;-83
2021/08/12 11:43:18;;;;;;;0.00;0.00;;;26.70;95.40;;;;;;5051860;28;20041;-86
2021/08/12 11:46:09;;;;;;;0.00;0.00;;;26.60;97.00;;;;;;5041173;28;20503;-88
2021/08/12 11:48:56;;;;;;;0.00;0.00;;;26.60;96.10;;;;;;5046239;28;20049;-86
2021/08/12 11:51:44;;;;;;;0.00;0.00;;;26.50;94.90;;;;;;5049221;28;20071;-86
2021/08/12 11:54:31;;;;;;;0.28;0.00;;;26.30;94.80;;;;;;5049586;28;20160;-86
2021/08/12 11:57:19;;;;;;;0.00;0.00;;;26.10;95.60;;;;;;5067543;28;20131;-88
2021/08/12 12:00:08;;;;;;;0.00;0.00;;;26.40;97.30;;;;;;5049938;28;20408;-86
2021/08/12 12:03:01;;;;;;;0.00;0.00;;;26.50;96.00;;;;;;5048700;28;20072;-86
2021/08/12 12:05:50;;;;;;;0.00;0.00;;;26.70;97.10;;;;;;5053425;28;20053;-87
2021/08/12 12:08:38;;;;;;;0.00;0.00;;;26.90;96.70;;;;;;5048104;28;20051;-84
2021/08/12 12:11:25;;;;;;;0.00;0.00;;;27.00;96.30;;;;;;5053110;28;20045;-85
2021/08/12 12:14:17;;;;;;;0.00;0.00;;;26.90;94.00;;;;;;5056503;28;20043;-83
2021/08/12 12:17:15;;;;;;;0.00;0.00;;;26.80;93.80;;;;;;5072367;28;20037;-85
2021/08/12 12:20:10;;;;;;;0.00;0.00;;;26.60;94.80;;;;;;5051062;28;20041;-85
2021/08/12 12:23:00;;;;;;;0.00;0.00;;;26.50;94.90;;;;;;5048865;28;20615;-85
2021/08/12 12:25:49;;;;;;;0.00;0.00;;;26.00;93.90;;;;;;5055077;28;20124;-86
2021/08/12 12:28:40;;;;;;;0.00;0.00;;;26.10;95.50;;;;;;5049240;28;20073;-83
2021/08/12 12:31:27;;;;;;;0.00;0.00;;;26.30;97.00;;;;;;5048747;28;20041;-84
2021/08/12 12:34:14;;;;;;;0.00;0.00;;;26.40;95.00;;;;;;5050197;28;20105;-86
2021/08/12 12:37:03;;;;;;;0.00;0.00;;;26.30;95.10;;;;;;5035207;28;20123;-80
2021/08/12 12:39:50;;;;;;;0.00;0.00;;;26.40;94.80;;;;;;5047968;28;20076;-86
2021/08/12 12:42:53;;;;;;;0.00;0.00;;;26.50;95.20;;;;;;5051475;28;20041;-86
2021/08/12 12:45:45;;;;;;;0.00;0.00;;;26.60;94.00;;;;;;5051579;28;20068;-87
2021/08/12 12:48:34;;;;;;;0.00;0.00;;;26.50;94.50;;;;;;5051137;28;22184;-85
2021/08/12 12:51:25;;;;;;;0.00;0.00;;;26.60;94.00;;;;;;5050727;28;20051;-88
2021/08/12 12:54:14;;;;;;;0.00;0.00;;;26.60;94.30;;;;;;5047271;28;20526;-86
2021/08/12 12:57:01;;;;;;;0.00;0.00;;;27.20;93.90;;;;;;5049550;28;20116;-86
2021/08/12 12:59:51;;;;;;;0.00;0.00;;;26.50;93.60;;;;;;5043905;28;20045;-85
2021/08/12 13:02:38;;;;;;;0.00;0.00;;;26.70;93.80;;;;;;5041445;28;20115;-86
2021/08/12 13:05:47;;;;;;;0.00;0.00;;;26.70;94.50;;;;;;5042618;28;20056;-88
2021/08/12 13:08:35;;;;;;;0.00;0.00;;;26.60;93.10;;;;;;5047776;28;20403;-84
2021/08/12 13:11:29;;;;;;;0.00;0.00;;;26.80;94.40;;;;;;5049383;28;20284;-84
2021/08/12 13:14:16;;;;;;;0.00;0.00;;;26.90;93.20;;;;;;5047403;28;20059;-86
2021/08/12 13:17:04;;;;;;;0.00;0.00;;;27.10;93.90;;;;;;5046409;28;20045;-86
2021/08/12 13:20:07;;;;;;;0.00;0.00;;;27.40;94.60;;;;;;5046618;28;20100;-86
2021/08/12 13:22:55;;;;;;;0.00;0.00;;;27.40;92.60;;;;;;5025097;28;20037;-86
2021/08/12 13:25:54;;;;;;;0.00;0.00;;;27.50;94.00;;;;;;5046950;28;20036;-85
2021/08/12 13:28:42;;;;;;;0.00;0.00;;;27.60;90.70;;;;;;5047416;28;20041;-87
2021/08/12 13:31:36;;;;;;;0.00;0.00;;;28.30;91.00;;;;;;5048855;28;20067;-84
2021/08/12 13:34:23;;;;;;;0.00;0.00;;;27.90;91.70;;;;;;5047307;28;20057;-87
2021/08/12 13:37:11;;;;;;;0.00;0.00;;;28.10;92.50;;;;;;5050438;28;20045;-87
2021/08/12 13:39:58;;;;;;;0.00;0.00;;;28.40;91.90;;;;;;5048652;28;20049;-88
2021/08/12 13:42:46;;;;;;;0.00;0.00;;;28.60;91.00;;;;;;5046320;28;20094;-86
2021/08/12 13:45:36;;;;;;;0.00;0.00;;;28.80;90.30;;;;;;5049525;28;20045;-86
2021/08/12 13:48:23;;;;;;;0.00;0.00;;;28.60;91.10;;;;;;5045685;28;20420;-86
2021/08/12 13:51:10;;;;;;;0.00;0.00;;;28.60;90.50;;;;;;5040288;28;20508;-85
2021/08/12 13:53:57;;;;;;;0.00;0.00;;;28.50;91.00;;;;;;5048139;28;20109;-88
2021/08/12 13:56:44;;;;;;;0.00;0.00;;;28.60;91.10;;;;;;5044169;28;20048;-87
2021/08/12 13:59:36;;;;;;;0.00;0.00;;;28.70;91.40;;;;;;5047614;28;20041;-88
2021/08/12 14:02:24;;;;;;;0.00;0.00;;;28.60;90.20;;;;;;5055532;28;20131;-87
2021/08/12 14:05:11;;;;;;;0.00;0.00;;;28.50;90.30;;;;;;5044813;28;20041;-88
2021/08/12 14:07:58;;;;;;;0.00;0.00;;;28.40;91.50;;;;;;5047100;28;20037;-88
2021/08/12 14:10:46;;;;;;;0.00;0.00;;;;;;;;;;5045605;28;20578;-86
2021/08/12 14:13:33;;;;;;;0.00;0.00;;;28.10;91.10;;;;;;5047622;28;20049;-87
2021/08/12 14:16:21;;;;;;;0.00;0.00;;;;;;;;;;5051611;28;20132;-86
2021/08/12 14:19:10;;;;;;;0.00;0.00;;;28.30;91.10;;;;;;5048797;28;20111;-85
2021/08/12 14:21:57;;;;;;;0.00;0.00;;;28.40;92.50;;;;;;5046510;28;20442;-87
2021/08/12 14:24:44;;;;;;;0.00;0.00;;;28.60;92.80;;;;;;5043271;28;20126;-88
2021/08/12 14:27:31;;;;;;;0.00;0.00;;;28.70;92.70;;;;;;5049482;28;20056;-85
2021/08/12 14:30:18;;;;;;;0.00;0.00;;;28.70;91.50;;;;;;5050959;28;20049;-86
2021/08/12 14:33:05;;;;;;;0.00;0.00;;;28.80;90.60;;;;;;5040605;28;20041;-85
2021/08/12 14:35:53;;;;;;;0.00;0.00;;;28.80;91.80;;;;;;5034310;28;20044;-85
2021/08/12 14:38:43;;;;;;;0.00;0.00;;;28.80;91.90;;;;;;5050461;28;20055;-87
2021/08/12 14:41:31;;;;;;;0.00;0.00;;;28.90;91.60;;;;;;5047550;28;20045;-87
2021/08/12 14:44:18;;;;;;;0.00;0.00;;;29.00;91.50;;;;;;5040319;28;20041;-86